Time;durP1;ratioP1;P1;durP2;ratioP2;P2;SDS_P1;SDS_P2;PMS_P1;PMS_P2;Temp;Humidity;BMP_temperature;BMP_pressure;BME280_temperature;BME280_humidity;BME280_pressure;Samples;Min_cycle;Max_cycle;Signal;HPM_P1;HPM_P2
2023/07/12 00:01:27;;;;;;;4.00;2.60;;;;;;;17.39;65.51;100155.98;105407;1256;69977;-48
2023/07/12 00:03:56;;;;;;;4.90;2.70;;;;;;;17.38;65.69;100152.27;105427;1257;69958;-50
2023/07/12 00:06:31;;;;;;;4.00;2.30;;;;;;;17.37;65.91;100147.21;105466;1257;74733;-46
2023/07/12 00:09:00;;;;;;;3.50;2.50;;;;;;;17.38;66.14;100144.38;105387;1253;83584;-48
2023/07/12 00:11:28;;;;;;;4.20;2.60;;;;;;;17.39;66.19;100141.48;105366;1253;72626;-49
2023/07/12 00:13:57;;;;;;;6.60;2.90;;;;;;;17.39;66.15;100139.86;105444;1257;69936;-48
2023/07/12 00:16:27;;;;;;;2.90;2.40;;;;;;;17.41;66.01;100139.02;105606;1256;70111;-47
2023/07/12 00:18:56;;;;;;;8.00;2.80;;;;;;;17.47;66.07;100142.72;105433;1257;72822;-47
2023/07/12 00:21:28;;;;;;;4.00;2.50;;;;;;;17.47;66.08;100143.57;105510;1256;83255;-49
2023/07/12 00:23:58;;;;;;;3.30;2.70;;;;;;;17.45;66.08;100140.15;105365;1257;73758;-48
2023/07/12 00:26:27;;;;;;;;;;;;;;;17.44;66.08;100139.38;105401;1253;69866;-48
2023/07/12 00:28:57;;;;;;;4.10;2.60;;;;;;;17.42;66.11;100138.13;105439;1255;69922;-49
2023/07/12 00:31:26;;;;;;;3.60;2.70;;;;;;;17.41;65.99;100134.63;105435;1257;73903;-48
2023/07/12 00:33:56;;;;;;;5.20;2.60;;;;;;;17.40;65.97;100131.70;105534;1253;82956;-47
2023/07/12 00:36:28;;;;;;;3.80;3.00;;;;;;;17.37;65.89;100128.16;105459;1253;71433;-48
2023/07/12 00:38:58;;;;;;;4.90;2.80;;;;;;;17.37;65.83;100130.97;105418;1253;70355;-49
2023/07/12 00:42:02;;;;;;;4.50;2.60;;;;;;;17.38;65.88;100138.14;105310;1253;69983;-49
2023/07/12 00:44:51;;;;;;;5.60;3.00;;;;;;;17.44;66.05;100130.75;105434;1254;75088;-48
2023/07/12 00:47:19;;;;;;;3.50;2.90;;;;;;;17.46;65.98;100131.81;105231;1258;83583;-47
2023/07/12 00:49:48;;;;;;;5.60;2.90;;;;;;;17.46;65.89;100129.17;105270;1253;73681;-47
2023/07/12 00:52:18;;;;;;;5.10;2.80;;;;;;;17.42;65.85;100128.04;105570;1253;69975;-48
2023/07/12 00:54:49;;;;;;;3.50;2.90;;;;;;;17.40;65.86;100130.06;105454;1257;69994;-48
2023/07/12 00:57:17;;;;;;;;;;;;;;;17.38;66.11;100116.25;105444;1253;75299;-48
2023/07/12 00:59:45;;;;;;;7.00;2.80;;;;;;;17.37;66.28;100111.55;105487;1253;82793;-48
2023/07/12 01:02:14;;;;;;;3.60;2.60;;;;;;;17.34;66.21;100102.41;105284;1256;72728;-47
2023/07/12 01:04:46;;;;;;;4.40;2.50;;;;;;;17.33;66.41;100096.17;105299;1256;69955;-47
2023/07/12 01:07:16;;;;;;;6.90;2.50;;;;;;;17.29;66.71;100092.52;105260;1254;69906;-47
2023/07/12 01:09:44;;;;;;;4.70;2.70;;;;;;;17.28;66.63;100086.47;105477;1253;73779;-48
2023/07/12 01:12:13;;;;;;;7.50;2.60;;;;;;;17.27;66.99;100082.41;105422;1257;83459;-47
2023/07/12 01:14:42;;;;;;;3.90;2.60;;;;;;;17.26;67.11;100074.89;105431;1253;73872;-47
2023/07/12 01:17:11;;;;;;;7.10;3.10;;;;;;;17.25;67.41;100062.94;105379;1253;69895;-48
2023/07/12 01:19:40;;;;;;;4.20;2.70;;;;;;;17.25;67.55;100056.26;105354;1256;70041;-48
2023/07/12 01:22:08;;;;;;;2.90;2.10;;;;;;;17.23;67.77;100052.86;105451;1257;75045;-47
2023/07/12 01:24:36;;;;;;;3.80;2.50;;;;;;;17.22;67.98;100051.75;105534;1258;83166;-47
2023/07/12 01:27:14;;;;;;;4.50;2.40;;;;;;;17.20;68.10;100045.83;105536;1257;73526;-47
2023/07/12 01:29:42;;;;;;;5.30;3.00;;;;;;;17.19;68.48;100044.16;105404;1253;70035;-47
2023/07/12 01:32:11;;;;;;;3.80;2.80;;;;;;;17.18;68.82;100043.14;105462;1257;69995;-47
2023/07/12 01:34:40;;;;;;;3.70;2.50;;;;;;;17.18;69.16;100033.98;105340;1253;74998;-47
2023/07/12 01:37:09;;;;;;;4.60;2.50;;;;;;;17.17;69.39;100025.91;105706;1257;83153;-47
2023/07/12 01:39:37;;;;;;;4.60;2.70;;;;;;;17.15;69.54;100024.84;105406;1256;73656;-47
2023/07/12 01:42:06;;;;;;;5.20;2.80;;;;;;;17.13;69.77;100017.21;105253;1256;69992;-48
2023/07/12 01:44:34;;;;;;;4.20;2.60;;;;;;;17.12;69.88;100014.05;105442;1257;69999;-47
2023/07/12 01:47:03;;;;;;;3.20;2.50;;;;;;;17.11;69.87;100009.95;105646;1257;73504;-49
2023/07/12 01:49:33;;;;;;;3.40;2.40;;;;;;;17.10;69.86;100003.96;105360;1253;83449;-47
2023/07/12 01:52:02;;;;;;;4.50;2.70;;;;;;;17.10;69.91;100002.38;105401;1257;72517;-46
2023/07/12 01:54:31;;;;;;;3.60;2.40;;;;;;;17.11;70.02;99996.68;105527;1253;69884;-46
2023/07/12 01:56:59;;;;;;;4.30;2.30;;;;;;;17.11;69.91;99990.14;105682;1257;69976;-47
2023/07/12 01:59:28;;;;;;;4.80;2.90;;;;;;;17.11;69.81;99990.17;105465;1253;75051;-47
2023/07/12 02:01:56;;;;;;;4.40;2.40;;;;;;;17.11;69.91;99986.48;105423;1255;83076;-48
2023/07/12 02:04:25;;;;;;;3.70;2.50;;;;;;;17.12;69.90;99986.59;105403;1253;72675;-47
2023/07/12 02:06:53;;;;;;;3.80;2.50;;;;;;;17.13;69.91;99981.67;105375;1253;69942;-48
2023/07/12 02:09:22;;;;;;;4.30;2.50;;;;;;;17.17;70.08;99977.73;105439;1256;70000;-46
2023/07/12 02:11:50;;;;;;;2.60;2.30;;;;;;;17.21;70.09;99971.66;105232;1253;75068;-48
2023/07/12 02:14:18;;;;;;;4.30;2.30;;;;;;;17.22;69.95;99965.91;105254;1258;82184;-47
2023/07/12 02:16:46;;;;;;;3.30;2.10;;;;;;;17.22;69.81;99962.18;105343;1253;72816;-47
2023/07/12 02:19:15;;;;;;;3.60;2.60;;;;;;;17.21;69.70;99961.73;105421;1256;69932;-48
2023/07/12 02:21:43;;;;;;;2.80;2.50;;;;;;;17.22;69.83;99954.98;105599;1257;70266;-47
2023/07/12 02:24:11;;;;;;;3.60;2.60;;;;;;;17.22;69.87;99949.31;105401;1253;74739;-47
2023/07/12 02:26:41;;;;;;;5.20;2.60;;;;;;;17.23;69.91;99947.50;105216;1253;81975;-48
2023/07/12 02:29:09;;;;;;;3.60;2.50;;;;;;;17.25;69.91;99941.13;105300;1253;176873;-47
2023/07/12 02:31:38;;;;;;;3.50;2.20;;;;;;;17.26;69.98;99935.41;105440;1257;70018;-48
2023/07/12 02:34:06;;;;;;;3.30;2.40;;;;;;;17.28;69.80;99931.36;105419;1253;70073;-47
2023/07/12 02:36:36;;;;;;;4.10;2.40;;;;;;;17.31;69.97;99929.24;105437;1253;74810;-48
2023/07/12 02:39:05;;;;;;;4.10;2.40;;;;;;;17.32;69.87;99936.56;105405;1253;83577;-47
2023/07/12 02:41:33;;;;;;;4.00;2.80;;;;;;;17.32;69.82;99936.06;105382;1253;73898;-48
2023/07/12 02:44:01;;;;;;;3.00;2.30;;;;;;;17.36;69.79;99935.88;105383;1253;70035;-47
2023/07/12 02:46:30;;;;;;;5.70;2.20;;;;;;;17.41;69.66;99931.70;105448;1258;69980;-48
2023/07/12 02:48:58;;;;;;;5.80;2.50;;;;;;;17.43;69.74;99927.11;105415;1253;74591;-47
2023/07/12 02:51:27;;;;;;;4.40;2.40;;;;;;;17.45;69.68;99924.73;105439;1257;83471;-47
2023/07/12 02:53:55;;;;;;;3.90;2.50;;;;;;;17.45;69.65;99918.12;105615;1253;73434;-46
2023/07/12 02:56:23;;;;;;;4.90;2.30;;;;;;;17.46;69.08;99908.35;105375;1253;69923;-47
2023/07/12 02:58:52;;;;;;;5.10;2.40;;;;;;;17.53;69.06;99910.32;105447;1257;70005;-47
2023/07/12 03:01:20;;;;;;;6.30;2.20;;;;;;;17.57;69.32;99906.11;105447;1257;73981;-47
2023/07/12 03:03:48;;;;;;;5.70;2.30;;;;;;;17.61;69.17;99903.68;105459;1257;83195;-47
2023/07/12 03:06:17;;;;;;;4.20;2.50;;;;;;;17.69;68.42;99893.05;105379;1255;73985;-46
2023/07/12 03:08:45;;;;;;;4.40;2.20;;;;;;;17.80;68.28;99889.55;105480;1253;70064;-47
2023/07/12 03:11:14;;;;;;;5.10;2.50;;;;;;;17.91;67.80;99886.66;105438;1253;69956;-46
2023/07/12 03:13:42;;;;;;;6.30;2.40;;;;;;;18.04;67.30;99882.16;105469;1257;74828;-47
2023/07/12 03:16:11;;;;;;;2.70;2.10;;;;;;;18.15;66.90;99873.15;105399;1253;82454;-47
2023/07/12 03:18:39;;;;;;;3.40;2.40;;;;;;;18.25;66.44;99871.34;105689;1253;73817;-47
2023/07/12 03:21:08;;;;;;;5.40;2.30;;;;;;;18.34;66.85;99871.36;105572;1257;69980;-47
2023/07/12 03:23:37;;;;;;;2.50;2.10;;;;;;;18.38;66.01;99862.39;105630;1253;69877;-47
2023/07/12 03:26:06;;;;;;;3.30;2.30;;;;;;;18.44;66.57;99855.68;105444;1258;74730;-48
2023/07/12 03:28:34;;;;;;;3.50;2.30;;;;;;;18.46;66.57;99854.09;105438;1256;83177;-46
2023/07/12 03:31:06;;;;;;;4.70;2.60;;;;;;;18.48;66.55;99849.00;105470;1253;73686;-48
2023/07/12 03:33:36;;;;;;;3.20;2.30;;;;;;;18.49;66.44;99843.24;105421;1253;69990;-47
2023/07/12 03:36:05;;;;;;;4.60;2.10;;;;;;;18.49;66.53;99835.81;105468;1253;69992;-48
2023/07/12 03:38:33;;;;;;;3.80;2.30;;;;;;;18.48;66.73;99834.82;105457;1257;75042;-48
2023/07/12 03:41:05;;;;;;;3.20;2.20;;;;;;;18.50;66.92;99828.11;105489;1253;83413;-48
2023/07/12 03:43:34;;;;;;;3.60;2.20;;;;;;;18.55;66.63;99824.96;105445;1258;73060;-48
2023/07/12 03:46:04;;;;;;;4.80;2.10;;;;;;;18.57;66.52;99824.10;105446;1253;70050;-47
2023/07/12 03:48:32;;;;;;;;;;;;;;;18.57;66.76;99823.52;105450;1253;69973;-47
2023/07/12 03:51:01;;;;;;;3.10;2.40;;;;;;;18.56;66.51;99820.39;105528;1257;74167;-48
2023/07/12 03:53:29;;;;;;;3.60;2.30;;;;;;;18.58;65.97;99819.04;105412;1253;83670;-48
2023/07/12 03:56:00;;;;;;;6.30;2.50;;;;;;;18.62;65.64;99824.36;105499;1253;72609;-47
2023/07/12 03:58:32;;;;;;;4.00;2.60;;;;;;;18.68;65.59;99830.05;105378;1256;70044;-47
2023/07/12 04:01:09;;;;;;;4.90;2.30;;;;;;;18.75;65.00;99832.03;105667;1253;70215;-47
2023/07/12 04:03:38;;;;;;;4.60;2.30;;;;;;;18.84;64.67;99828.13;105487;1253;74041;-48
2023/07/12 04:06:09;;;;;;;3.30;2.30;;;;;;;18.92;64.43;99828.55;105455;1253;83811;-48
2023/07/12 04:08:38;;;;;;;3.10;2.50;;;;;;;19.01;64.17;99825.19;105463;1257;73607;-48
2023/07/12 04:11:08;;;;;;;3.70;2.70;;;;;;;19.09;64.01;99828.23;105492;1253;70415;-48
2023/07/12 04:13:37;;;;;;;4.00;2.90;;;;;;;19.16;63.65;99826.43;105254;1258;70032;-47
2023/07/12 04:16:05;;;;;;;4.20;2.90;;;;;;;19.23;63.46;99826.77;105427;1258;75131;-48
2023/07/12 04:18:33;;;;;;;3.90;2.70;;;;;;;19.30;63.14;99823.17;105482;1253;82508;-47
2023/07/12 04:21:04;;;;;;;7.50;3.00;;;;;;;19.36;63.02;99835.58;105469;1254;73562;-46
2023/07/12 04:23:33;;;;;;;4.30;2.60;;;;;;;19.43;62.89;99846.38;105507;1257;70012;-46
2023/07/12 04:26:04;;;;;;;7.20;2.90;;;;;;;19.49;62.73;99846.91;105839;1253;69901;-46
2023/07/12 04:28:38;;;;;;;5.40;3.50;;;;;;;19.56;62.46;99862.08;105667;1257;74661;-46
2023/07/12 04:31:10;;;;;;;5.10;3.20;;;;;;;19.73;62.13;99873.30;105813;1256;83347;-47
2023/07/12 04:33:39;;;;;;;7.90;3.30;;;;;;;19.90;61.68;99881.99;105626;1253;73999;-46
2023/07/12 04:36:10;;;;;;;4.80;3.40;;;;;;;20.06;61.31;99887.58;105467;1257;69990;-46
2023/07/12 04:38:38;;;;;;;6.80;3.60;;;;;;;20.21;60.83;99892.78;105599;1253;70006;-47
2023/07/12 04:41:07;;;;;;;5.20;3.30;;;;;;;20.33;60.34;99895.53;105616;1253;73774;-46
2023/07/12 04:43:36;;;;;;;4.70;3.00;;;;;;;20.42;59.92;99898.33;105663;1253;83583;-47
2023/07/12 04:46:05;;;;;;;7.50;3.20;;;;;;;20.50;59.55;99896.86;105474;1258;73881;-46
2023/07/12 04:48:33;;;;;;;5.90;3.30;;;;;;;20.58;59.28;99901.42;105746;1253;69939;-47
2023/07/12 04:51:05;;;;;;;4.30;3.00;;;;;;;20.63;59.01;99905.73;105840;1256;69878;-47
2023/07/12 04:53:33;;;;;;;7.40;3.20;;;;;;;20.68;58.84;99906.67;105856;1253;74710;-47
2023/07/12 04:56:02;;;;;;;5.10;3.00;;;;;;;20.71;58.47;99909.09;105485;1253;83347;-47
2023/07/12 04:58:31;;;;;;;4.50;3.00;;;;;;;20.74;58.50;99911.54;105761;1253;73655;-47
2023/07/12 05:00:59;;;;;;;7.30;3.40;;;;;;;20.75;58.52;99916.59;105408;1258;69923;-47
2023/07/12 05:03:28;;;;;;;5.50;3.10;;;;;;;20.74;58.62;99918.84;105941;1257;69864;-46
2023/07/12 05:05:57;;;;;;;4.90;3.00;;;;;;;20.72;58.73;99923.61;105489;1256;75081;-48
2023/07/12 05:08:33;;;;;;;5.40;3.40;;;;;;;20.63;59.15;99926.71;105484;1253;83310;-47
2023/07/12 05:11:03;;;;;;;6.20;3.50;;;;;;;20.43;59.90;99921.62;105565;1253;73778;-49
2023/07/12 05:13:33;;;;;;;4.00;3.50;;;;;;;20.23;60.78;99921.92;105485;1257;69951;-47
2023/07/12 05:16:02;;;;;;;5.50;3.10;;;;;;;20.07;61.32;99919.21;105522;1253;69936;-49
2023/07/12 05:18:30;;;;;;;4.60;3.40;;;;;;;19.91;61.96;99912.27;105543;1253;75758;-48
2023/07/12 05:20:58;;;;;;;6.00;3.60;;;;;;;19.81;62.65;99907.54;105438;1253;83864;-47
2023/07/12 05:23:27;;;;;;;4.40;3.10;;;;;;;19.76;63.48;99903.69;105680;1257;73971;-46
2023/07/12 05:25:56;;;;;;;5.10;3.30;;;;;;;19.72;64.03;99903.89;105531;1256;70012;-47
2023/07/12 05:28:24;;;;;;;6.30;3.50;;;;;;;19.69;64.31;99899.88;105427;1253;69895;-47
2023/07/12 05:30:53;;;;;;;4.90;3.50;;;;;;;19.69;64.87;99905.92;105772;1253;74514;-47
2023/07/12 05:33:21;;;;;;;6.60;3.30;;;;;;;19.72;65.16;99901.56;105461;1253;82321;-47
2023/07/12 05:35:49;;;;;;;4.50;3.40;;;;;;;19.77;65.73;99896.67;105426;1258;72197;-47
2023/07/12 05:38:18;;;;;;;6.60;3.70;;;;;;;19.85;66.37;99892.84;105466;1253;69936;-48
2023/07/12 05:40:46;;;;;;;7.60;4.00;;;;;;;19.92;66.88;99886.23;105655;1257;69879;-47
2023/07/12 05:43:22;;;;;;;6.00;3.70;;;;;;;19.98;66.33;99888.42;105604;1253;74439;-48
2023/07/12 05:45:52;;;;;;;7.20;3.40;;;;;;;20.05;66.05;99891.91;105740;1253;83533;-47
2023/07/12 05:48:20;;;;;;;8.30;4.00;;;;;;;20.13;65.58;99891.98;105339;1253;73984;-46
2023/07/12 05:50:56;;;;;;;5.50;3.30;;;;;;;20.22;65.54;99894.71;105499;1258;69990;-47
2023/07/12 05:53:24;;;;;;;8.60;3.60;;;;;;;20.31;65.36;99898.89;105576;1253;70070;-47
2023/07/12 05:55:57;;;;;;;5.60;3.60;;;;;;;20.38;65.20;99892.04;105899;1257;74836;-46
2023/07/12 05:58:26;;;;;;;6.20;3.50;;;;;;;20.44;65.22;99894.61;105543;1253;82073;-46
2023/07/12 06:00:58;;;;;;;7.20;3.50;;;;;;;20.49;65.15;99896.66;105554;1253;74382;-46
2023/07/12 06:03:28;;;;;;;6.60;4.10;;;;;;;20.55;65.39;99897.92;105642;1257;69927;-47
2023/07/12 06:05:57;;;;;;;5.70;3.50;;;;;;;20.62;65.22;99903.30;105505;1258;70612;-47
2023/07/12 06:08:26;;;;;;;7.20;3.30;;;;;;;20.70;65.09;99915.82;105813;1253;75076;-46
2023/07/12 06:10:55;;;;;;;6.00;3.90;;;;;;;20.75;65.32;99917.66;105688;1257;83304;-47
2023/07/12 06:13:23;;;;;;;7.70;3.80;;;;;;;20.81;65.80;99912.56;105559;1258;73554;-47
2023/07/12 06:15:52;;;;;;;7.10;3.60;;;;;;;20.84;65.73;99903.42;105579;1253;70011;-47
2023/07/12 06:18:21;;;;;;;8.10;3.70;;;;;;;20.90;65.62;99896.48;105597;1257;69987;-46
2023/07/12 06:20:55;;;;;;;6.40;3.90;;;;;;;20.98;65.59;99890.63;105532;1257;75146;-47
2023/07/12 06:23:24;;;;;;;11.20;4.70;;;;;;;21.03;65.49;99893.05;105723;1256;83309;-46
2023/07/12 06:25:57;;;;;;;7.50;4.10;;;;;;;21.05;65.66;99895.15;105999;1253;73698;-47
2023/07/12 06:28:26;;;;;;;5.10;4.20;;;;;;;21.06;66.15;99894.90;105863;1253;69932;-47
2023/07/12 06:30:54;;;;;;;4.60;4.00;;;;;;;21.04;66.12;99900.23;105604;1257;70356;-48
2023/07/12 06:33:23;;;;;;;4.80;4.00;;;;;;;21.01;66.52;99896.75;105785;1253;74736;-48
2023/07/12 06:35:51;;;;;;;7.80;4.60;;;;;;;21.01;67.41;99874.93;105734;1258;83173;-47
2023/07/12 06:38:21;;;;;;;6.70;4.30;;;;;;;20.95;67.61;99855.52;105494;1258;72441;-49
2023/07/12 06:40:49;;;;;;;8.00;4.30;;;;;;;20.86;68.35;99841.94;105622;1257;70007;-47
2023/07/12 06:43:18;;;;;;;6.10;4.30;;;;;;;20.79;69.11;99835.13;105702;1257;69933;-48
2023/07/12 06:45:46;;;;;;;6.30;4.10;;;;;;;20.75;69.77;99842.98;105723;1253;75013;-49
2023/07/12 06:48:14;;;;;;;6.40;3.90;;;;;;;20.68;69.84;99850.21;105739;1257;83226;-48
2023/07/12 06:50:43;;;;;;;7.30;3.70;;;;;;;20.64;70.32;99855.79;105669;1253;73223;-49
2023/07/12 06:53:11;;;;;;;6.40;4.40;;;;;;;20.63;70.83;99864.05;105522;1254;69994;-47
2023/07/12 06:55:44;;;;;;;5.90;4.60;;;;;;;20.63;71.44;99865.67;106065;1256;69999;-47
2023/07/12 06:58:12;;;;;;;7.20;4.50;;;;;;;20.61;71.77;99877.20;105708;1256;75160;-47
2023/07/12 07:00:42;;;;;;;6.00;4.30;;;;;;;20.57;72.12;99880.91;105617;1257;83303;-51
2023/07/12 07:03:11;;;;;;;7.20;4.10;;;;;;;20.55;72.18;99878.08;105576;1257;73789;-47
2023/07/12 07:05:42;;;;;;;8.40;5.00;;;;;;;20.55;72.72;99887.07;105464;1259;69991;-47
2023/07/12 07:08:12;;;;;;;7.20;4.00;;;;;;;20.56;73.16;99888.94;105628;1258;70008;-47
2023/07/12 07:10:42;;;;;;;5.70;4.30;;;;;;;20.57;73.21;99888.02;105824;1253;73807;-48
2023/07/12 07:13:10;;;;;;;7.00;4.40;;;;;;;20.57;73.17;99894.73;105520;1258;83241;-49
2023/07/12 07:15:39;;;;;;;11.30;4.50;;;;;;;20.63;73.45;99891.88;105499;1257;73869;-47
2023/07/12 07:18:08;;;;;;;6.60;4.20;;;;;;;20.74;73.43;99896.30;105792;1257;70001;-47
2023/07/12 07:20:39;;;;;;;8.10;4.90;;;;;;;20.87;73.28;99900.05;105654;1257;69927;-47
2023/07/12 07:23:08;;;;;;;8.10;4.50;;;;;;;21.05;72.97;99898.73;105622;1256;74895;-48
2023/07/12 07:25:39;;;;;;;5.50;4.60;;;;;;;21.22;73.03;99907.70;105655;1258;82582;-49
2023/07/12 07:28:11;;;;;;;6.90;4.50;;;;;;;21.40;72.33;99903.41;105674;1253;72633;-49
2023/07/12 07:30:39;;;;;;;7.00;4.40;;;;;;;21.58;71.94;99896.77;105568;1257;70069;-47
2023/07/12 07:33:08;;;;;;;6.50;4.60;;;;;;;21.76;71.82;99899.17;105657;1255;69888;-48
2023/07/12 07:35:37;;;;;;;7.60;4.60;;;;;;;21.93;71.53;99903.23;105552;1253;74851;-49
2023/07/12 07:38:05;;;;;;;8.50;4.80;;;;;;;22.04;71.05;99907.33;105596;1257;83691;-48
2023/07/12 07:40:33;;;;;;;10.30;4.90;;;;;;;22.13;70.72;99909.16;105587;1257;74058;-49
2023/07/12 07:43:02;;;;;;;6.10;5.00;;;;;;;22.19;70.41;99915.36;105502;1252;69915;-47
2023/07/12 07:45:30;;;;;;;6.20;5.20;;;;;;;22.17;70.13;99911.50;105448;1253;69931;-47
2023/07/12 07:47:58;;;;;;;7.20;5.10;;;;;;;22.12;69.99;99904.08;105554;1253;74721;-46
2023/07/12 07:50:27;;;;;;;7.90;5.00;;;;;;;22.10;70.23;99919.10;105624;1257;83964;-47
2023/07/12 07:52:55;;;;;;;7.20;4.60;;;;;;;22.08;70.46;99924.30;105639;1253;72681;-49
2023/07/12 07:55:26;;;;;;;5.40;4.60;;;;;;;22.09;70.51;99928.77;105640;1254;69987;-48
2023/07/12 07:57:54;;;;;;;9.50;5.10;;;;;;;22.11;70.77;99929.64;105552;1258;70006;-48
2023/07/12 08:00:23;;;;;;;6.70;4.90;;;;;;;22.12;71.03;99921.36;105513;1253;74836;-48
2023/07/12 08:02:53;;;;;;;8.90;4.90;;;;;;;22.14;71.30;99920.33;105586;1259;81375;-48
2023/07/12 08:05:22;;;;;;;6.90;4.30;;;;;;;22.12;71.58;99911.02;105582;1253;73068;-48
2023/07/12 08:07:50;;;;;;;6.90;4.70;;;;;;;22.10;71.60;99906.91;105508;1253;69994;-47
2023/07/12 08:10:18;;;;;;;9.00;5.00;;;;;;;22.12;71.54;99915.88;105699;1258;69934;-46
2023/07/12 08:12:48;;;;;;;7.70;4.80;;;;;;;22.12;71.77;99926.13;105630;1257;73301;-46
2023/07/12 08:15:20;;;;;;;6.10;4.70;;;;;;;22.17;71.94;99924.84;105684;1253;82436;-47
2023/07/12 08:17:49;;;;;;;7.10;4.90;;;;;;;22.21;71.93;99924.30;105629;1253;74762;-47
2023/07/12 08:20:18;;;;;;;5.10;4.60;;;;;;;22.30;71.98;99939.29;105718;1258;70017;-48
2023/07/12 08:22:47;;;;;;;9.40;5.10;;;;;;;22.41;71.63;99945.89;105738;1256;69933;-47
2023/07/12 08:25:15;;;;;;;8.70;5.20;;;;;;;22.55;71.71;99939.58;105573;1253;73628;-48
2023/07/12 08:27:44;;;;;;;5.90;4.90;;;;;;;22.67;71.55;99943.41;105428;1257;83273;-47
2023/07/12 08:30:13;;;;;;;5.50;4.50;;;;;;;22.81;71.66;99944.80;105386;1257;72335;-47
2023/07/12 08:32:41;;;;;;;7.00;5.00;;;;;;;22.96;71.73;99936.25;105616;1258;69926;-48
2023/07/12 08:35:11;;;;;;;9.20;5.20;;;;;;;23.05;71.61;99933.27;105382;1253;70013;-47
2023/07/12 08:37:40;;;;;;;10.00;5.30;;;;;;;23.14;71.66;99935.80;105466;1257;74430;-47
2023/07/12 08:40:13;;;;;;;8.00;5.30;;;;;;;23.26;71.75;99933.02;105609;1259;82892;-48
2023/07/12 08:42:42;;;;;;;8.20;5.10;;;;;;;23.42;71.43;99934.07;105440;1253;72499;-49
2023/07/12 08:45:28;;;;;;;6.40;5.00;;;;;;;23.60;71.23;99927.16;105430;1258;70003;-47
2023/07/12 08:48:01;;;;;;;12.40;5.80;;;;;;;23.81;71.06;99919.75;105446;1255;69936;-47
2023/07/12 08:50:39;;;;;;;6.90;5.60;;;;;;;24.00;70.67;99926.23;105389;1254;75077;-47
2023/07/12 08:53:15;;;;;;;9.70;5.50;;;;;;;24.13;69.82;99927.38;105420;1257;83272;-47
2023/07/12 08:55:43;;;;;;;8.60;5.30;;;;;;;24.21;69.27;99921.95;105575;1258;73894;-50
2023/07/12 08:58:30;;;;;;;8.10;5.30;;;;;;;24.30;69.15;99913.71;105443;1257;70001;-48
2023/07/12 09:01:03;;;;;;;5.90;5.30;;;;;;;24.50;69.09;99913.81;105459;1257;69900;-48
2023/07/12 09:03:32;;;;;;;7.20;5.90;;;;;;;24.68;68.86;99911.02;105606;1257;74838;-49
2023/07/12 09:06:00;;;;;;;7.70;5.90;;;;;;;24.83;68.54;99902.94;105459;1257;83282;-49
2023/07/12 09:08:35;;;;;;;8.00;6.50;;;;;;;24.98;68.50;99899.72;105463;1256;73540;-48
2023/07/12 09:11:15;;;;;;;7.90;5.90;;;;;;;25.12;68.20;99895.92;105235;1258;69852;-47
2023/07/12 09:13:46;;;;;;;7.40;5.80;;;;;;;25.30;68.28;99897.36;105467;1255;69872;-47
2023/07/12 09:16:35;;;;;;;6.90;5.60;;;;;;;25.53;68.02;99891.54;105430;1252;73794;-48
2023/07/12 09:19:23;;;;;;;7.40;5.90;;;;;;;25.80;67.71;99892.50;105444;1258;83312;-48
2023/07/12 09:21:57;;;;;;;7.20;6.50;;;;;;;26.07;67.48;99898.92;105421;1259;72888;-48
2023/07/12 09:24:28;;;;;;;9.80;6.30;;;;;;;26.31;67.21;99899.10;105712;1257;70611;-48
2023/07/12 09:27:15;;;;;;;12.10;6.70;;;;;;;26.63;66.16;99900.47;105571;1255;70075;-47
2023/07/12 09:29:44;;;;;;;6.50;5.90;;;;;;;26.91;65.12;99904.46;105441;1256;75116;-47
2023/07/12 09:32:33;;;;;;;8.00;5.90;;;;;;;27.13;63.78;99902.58;105516;1257;83460;-47
2023/07/12 09:35:22;;;;;;;7.00;6.30;;;;;;;27.43;62.76;99903.14;105446;1253;72513;-47
2023/07/12 09:37:59;;;;;;;9.50;5.50;;;;;;;27.61;61.29;99896.75;105543;1254;69952;-48
2023/07/12 09:40:30;;;;;;;6.90;6.00;;;;;;;27.71;60.04;99899.88;105422;1258;69888;-50
2023/07/12 09:43:03;;;;;;;7.80;6.00;;;;;;;27.84;59.14;99894.41;105327;1258;73887;-50
2023/07/12 09:45:34;;;;;;;6.80;5.50;;;;;;;27.88;58.30;99888.96;105387;1258;83331;-48
2023/07/12 09:48:10;;;;;;;7.20;5.40;;;;;;;27.89;58.06;99886.84;105369;1254;73742;-49
2023/07/12 09:50:48;;;;;;;6.10;4.90;;;;;;;27.95;57.50;99887.42;105512;1258;69991;-50
2023/07/12 09:53:40;;;;;;;6.00;5.10;;;;;;;27.96;57.04;99887.08;105611;1253;69878;-49
2023/07/12 09:56:23;;;;;;;8.30;5.20;;;;;;;28.05;56.93;99892.45;105653;1256;74900;-49
2023/07/12 09:58:58;;;;;;;7.50;5.80;;;;;;;28.19;56.70;99896.02;105438;1259;82172;-49
2023/07/12 10:01:45;;;;;;;5.60;4.60;;;;;;;28.23;55.79;99892.40;105436;1253;73654;-48
2023/07/12 10:04:25;;;;;;;6.30;5.20;;;;;;;28.29;55.14;99891.78;105409;1257;69902;-48
2023/07/12 10:06:54;;;;;;;8.50;5.40;;;;;;;28.32;54.81;99892.52;105572;1258;70000;-49
2023/07/12 10:09:30;;;;;;;8.30;5.00;;;;;;;28.40;54.63;99896.05;105464;1258;74552;-51
2023/07/12 10:12:07;;;;;;;6.40;4.70;;;;;;;28.51;54.19;99895.44;105369;1260;83471;-47
2023/07/12 10:14:38;;;;;;;6.70;4.80;;;;;;;28.57;53.83;99892.17;105423;1253;72679;-48
2023/07/12 10:17:16;;;;;;;5.70;4.60;;;;;;;28.68;53.67;99895.15;105564;1258;70355;-48
2023/07/12 10:19:49;;;;;;;5.80;4.60;;;;;;;28.77;53.25;99902.66;105382;1259;69973;-48
2023/07/12 10:22:24;;;;;;;13.50;4.50;;;;;;;28.75;52.60;99902.79;105478;1253;74830;-48
2023/07/12 10:24:53;;;;;;;5.70;4.90;;;;;;;28.66;52.31;99907.39;105444;1257;83981;-48
2023/07/12 10:27:32;;;;;;;7.30;4.60;;;;;;;28.60;52.26;99908.03;105230;1258;73677;-48
2023/07/12 10:30:09;;;;;;;5.20;4.60;;;;;;;28.60;52.37;99902.09;105397;1258;69991;-48
2023/07/12 10:32:45;;;;;;;6.90;4.90;;;;;;;28.66;52.43;99904.88;105438;1258;69921;-47
2023/07/12 10:35:27;;;;;;;6.40;4.50;;;;;;;28.74;52.11;99906.27;105438;1258;73836;-48
2023/07/12 10:37:59;;;;;;;5.30;4.20;;;;;;;28.75;51.55;99911.50;105462;1259;83340;-49
2023/07/12 10:40:32;;;;;;;8.50;4.60;;;;;;;28.75;51.46;99907.66;105657;1258;72622;-47
2023/07/12 10:43:04;;;;;;;6.50;4.20;;;;;;;28.72;51.16;99905.32;105474;1256;70014;-49
2023/07/12 10:45:35;;;;;;;4.70;4.20;;;;;;;28.74;51.23;99900.75;105413;1258;69986;-48
2023/07/12 10:48:04;;;;;;;6.70;3.90;;;;;;;28.76;50.93;99902.48;105418;1258;73858;-47
2023/07/12 10:50:48;;;;;;;5.70;4.60;;;;;;;28.72;50.56;99900.21;105396;1253;82572;-48
2023/07/12 10:53:27;;;;;;;8.30;4.20;;;;;;;28.68;50.40;99901.08;105420;1258;73940;-47
2023/07/12 10:56:17;;;;;;;5.40;4.30;;;;;;;28.73;50.38;99890.70;105418;1254;69983;-48
2023/07/12 10:58:57;;;;;;;4.80;3.90;;;;;;;28.94;50.11;99885.83;105461;1254;69959;-48
2023/07/12 11:01:43;;;;;;;7.10;4.40;;;;;;;29.18;49.94;99880.65;105465;1260;73741;-47
2023/07/12 11:04:14;;;;;;;6.10;4.00;;;;;;;29.23;49.40;99877.93;105436;1254;83855;-48
2023/07/12 11:07:01;;;;;;;7.10;4.10;;;;;;;29.13;49.18;99878.65;105408;1258;73760;-48
2023/07/12 11:09:42;;;;;;;7.50;3.80;;;;;;;29.03;49.26;99884.60;105396;1257;69933;-48
2023/07/12 11:12:29;;;;;;;5.70;4.00;;;;;;;28.93;48.86;99881.09;105411;1257;69945;-47
2023/07/12 11:15:06;;;;;;;7.50;4.00;;;;;;;28.89;48.96;99877.08;105645;1257;74866;-46
2023/07/12 11:17:54;;;;;;;4.80;3.90;;;;;;;28.82;48.74;99872.05;105464;1266;83236;-48
2023/07/12 11:20:25;;;;;;;5.30;3.40;;;;;;;28.71;49.05;99870.41;105434;1258;73041;-48
2023/07/12 11:22:58;;;;;;;6.20;3.90;;;;;;;28.58;49.00;99871.54;105410;1259;70012;-48
2023/07/12 11:25:35;;;;;;;4.90;3.60;;;;;;;28.39;49.01;99875.27;105758;1254;69935;-48
2023/07/12 11:28:24;;;;;;;8.10;4.00;;;;;;;28.21;49.34;99874.36;105473;1256;74157;-48
2023/07/12 11:31:26;;;;;;;9.90;4.10;;;;;;;27.99;50.25;99877.32;105414;1260;82771;-48
2023/07/12 11:34:16;;;;;;;6.90;4.00;;;;;;;27.64;51.13;99885.25;105372;1255;72457;-50
2023/07/12 11:37:04;;;;;;;11.30;5.90;;;;;;;27.25;53.54;99894.22;105381;1257;69833;-53
2023/07/12 11:39:32;;;;;;;8.70;5.30;;;;;;;26.56;55.52;99884.55;105439;1256;69992;-49
2023/07/12 11:42:08;;;;;;;10.90;5.30;;;;;;;26.13;57.28;99874.91;105436;1257;74950;-51
2023/07/12 11:44:36;;;;;;;12.20;5.30;;;;;;;25.87;59.07;99884.60;105391;1253;83892;-49